Time;durP1;ratioP1;P1;durP2;ratioP2;P2;SDS_P1;SDS_P2;PMS_P1;PMS_P2;Temp;Humidity;BMP_temperature;BMP_pressure;BME280_temperature;BME280_humidity;BME280_pressure;Samples;Min_cycle;Max_cycle;Signal;HPM_P1;HPM_P2
2022/04/25 00:07:42;;;;;;;;;;;16.60;91.40;;;;;;31629799;28;20000;-21
2022/04/25 00:22:45;;;;;;;;;;;16.80;91.10;;;;;;31628613;28;20441;-20
2022/04/25 00:37:46;;;;;;;;;;;16.90;91.20;;;;;;31626370;28;19973;-20
2022/04/25 00:52:47;;;;;;;;;;;16.80;91.10;;;;;;31625259;28;20289;-22
2022/04/25 01:07:48;;;;;;;;;;;16.70;91.50;;;;;;31623101;28;19920;-23
2022/04/25 01:38:26;;;;;;;;;;;16.70;91.50;;;;;;31605038;28;20395;-21
2022/04/25 01:53:27;;;;;;;;;;;16.60;91.70;;;;;;31628376;28;19920;-21
2022/04/25 02:08:28;;;;;;;;;;;16.60;91.90;;;;;;31453393;28;20366;-22
2022/04/25 02:23:30;;;;;;;;;;;16.60;91.90;;;;;;31427440;28;19920;-21
2022/04/25 02:38:31;;;;;;;;;;;16.60;92.10;;;;;;31446100;28;19929;-20
2022/04/25 02:53:33;;;;;;;;;;;16.60;92.20;;;;;;31446529;28;19920;-20
2022/04/25 03:08:37;;;;;;;;;;;16.50;92.10;;;;;;31432787;28;19920;-22
2022/04/25 03:23:38;;;;;;;;;;;16.50;92.20;;;;;;31444790;28;20254;-22
2022/04/25 03:38:42;;;;;;;;;;;16.50;92.00;;;;;;31438722;28;19960;-21
2022/04/25 03:53:43;;;;;;;;;;;16.50;92.00;;;;;;31432064;28;20293;-20
2022/04/25 04:08:44;;;;;;;;;;;16.50;92.10;;;;;;31435294;28;19964;-20
2022/04/25 04:23:45;;;;;;;;;;;16.60;92.10;;;;;;31432610;28;21329;-20
2022/04/25 04:38:46;;;;;;;;;;;16.60;92.10;;;;;;31438651;28;19924;-20
2022/04/25 04:53:47;;;;;;;;;;;16.60;92.40;;;;;;31434512;28;20366;-20
2022/04/25 05:08:48;;;;;;;;;;;16.60;92.20;;;;;;31436160;28;20318;-21
2022/04/25 05:23:49;;;;;;;;;;;16.50;92.30;;;;;;31425210;28;20294;-20
2022/04/25 05:38:50;;;;;;;;;;;16.40;92.40;;;;;;31301333;28;19925;-21
2022/04/25 05:53:52;;;;;;;;;;;16.50;92.30;;;;;;31298012;28;19920;-21
2022/04/25 06:08:53;;;;;;;;;;;16.50;92.50;;;;;;31262278;28;19932;-21
2022/04/25 06:23:54;;;;;;;;;;;16.40;93.00;;;;;;31267922;28;20370;-21
2022/04/25 06:38:55;;;;;;;;;;;16.40;93.00;;;;;;31543655;28;19920;-20
2022/04/25 06:53:56;;;;;;;;;;;16.40;93.10;;;;;;31549214;28;19960;-21
2022/04/25 07:08:57;;;;;;;;;;;16.30;93.40;;;;;;31488434;28;20019;-21
2022/04/25 07:39:18;;;;;;;;;;;16.40;92.70;;;;;;31511946;28;19920;-21
2022/04/25 07:54:19;;;;;;;;;;;16.70;92.20;;;;;;31481325;28;20359;-20
2022/04/25 08:09:20;;;;;;;;;;;16.90;91.70;;;;;;31389939;28;19920;-20
2022/04/25 08:24:21;;;;;;;;;;;17.30;91.10;;;;;;31500925;28;19924;-20
2022/04/25 08:39:22;;;;;;;;;;;17.00;91.30;;;;;;31456827;28;19932;-21
2022/04/25 08:54:28;;;;;;;;;;;17.00;91.20;;;;;;31470224;28;19924;-20
2022/04/25 09:09:29;;;;;;;;;;;16.90;91.20;;;;;;31477605;28;19935;-20
2022/04/25 09:24:32;;;;;;;;;;;17.20;90.80;;;;;;31439339;28;20525;-23
2022/04/25 09:39:34;;;;;;;;;;;17.50;90.50;;;;;;31384664;28;19932;-20
2022/04/25 09:54:35;;;;;;;;;;;17.60;90.50;;;;;;31357791;28;19967;-23
2022/04/25 10:09:36;;;;;;;2.90;1.50;;;17.80;90.20;;;;;;31356457;28;20349;-20
2022/04/25 10:24:37;;;;;;;3.00;1.58;;;17.90;90.00;;;;;;31386317;28;20141;-20
2022/04/25 10:39:47;;;;;;;3.13;1.83;;;17.90;89.20;;;;;;31409816;28;20078;-20
2022/04/25 10:54:49;;;;;;;4.07;1.50;;;17.60;90.00;;;;;;31389139;28;20773;-20
2022/04/25 11:09:51;;;;;;;2.53;1.80;;;17.60;90.10;;;;;;31398504;28;20411;-20
2022/04/25 11:24:52;;;;;;;3.30;1.90;;;18.10;88.40;;;;;;31399430;28;20087;-21
2022/04/25 11:39:57;;;;;;;;;;;18.00;87.80;;;;;;31470982;28;20079;-20
2022/04/25 11:54:59;;;;;;;;;;;18.10;88.20;;;;;;31482065;28;20279;-22
2022/04/25 12:25:26;;;;;;;;;;;18.20;88.60;;;;;;31455461;28;20378;-20
2022/04/25 12:40:27;;;;;;;;;;;18.00;88.90;;;;;;31466926;28;19931;-24
2022/04/25 12:55:41;;;;;;;;;;;18.00;88.40;;;;;;31487382;28;19920;-20
2022/04/25 13:10:43;;;;;;;;;;;18.10;88.30;;;;;;31455674;28;19928;-20
2022/04/25 13:25:44;;;;;;;;;;;18.00;88.10;;;;;;31495799;28;20381;-21
2022/04/25 13:40:47;;;;;;;;;;;18.10;87.80;;;;;;31497241;28;19920;-20
2022/04/25 13:55:48;;;;;;;6.55;4.68;;;18.10;87.70;;;;;;31514103;28;19927;-21
2022/04/25 14:10:52;;;;;;;;;;;17.90;88.40;;;;;;31485936;28;20059;-20
2022/04/25 14:25:56;;;;;;;;;;;17.70;89.20;;;;;;31501258;28;19927;-21
2022/04/25 14:40:57;;;;;;;;;;;17.50;88.80;;;;;;31464484;28;20366;-21
2022/04/25 14:55:59;;;;;;;;;;;17.30;88.80;;;;;;31511834;28;19925;-21
2022/04/25 15:11:00;;;;;;;;;;;17.00;90.10;;;;;;31487946;28;20309;-20
2022/04/25 15:26:01;;;;;;;;;;;17.30;89.30;;;;;;31421090;28;19939;-22
2022/04/25 15:41:02;;;;;;;;;;;17.50;88.70;;;;;;31278536;28;19988;-21
2022/04/25 16:11:22;;;;;;;;;;;17.20;89.90;;;;;;31285339;28;19951;-22
2022/04/25 16:26:24;;;;;;;;;;;17.00;90.50;;;;;;31296460;28;19925;-21
2022/04/25 16:41:25;;;;;;;;;;;17.00;90.80;;;;;;31413689;28;19928;-21
2022/04/25 16:56:46;;;;;;;;;;;17.00;91.30;;;;;;31421696;28;19970;-22
2022/04/25 17:11:47;;;;;;;;;;;17.00;91.90;;;;;;31387437;28;19987;-26
2022/04/25 17:26:48;;;;;;;;;;;16.90;91.70;;;;;;31400974;28;19920;-22
2022/04/25 17:42:23;;;;;;;;;;;16.90;91.90;;;;;;31404147;28;19921;-21
